Time;durP1;ratioP1;P1;durP2;ratioP2;P2;SDS_P1;SDS_P2;PMS_P1;PMS_P2;Temp;Humidity;BMP_temperature;BMP_pressure;BME280_temperature;BME280_humidity;BME280_pressure;Samples;Min_cycle;Max_cycle;Signal;HPM_P1;HPM_P2
2023/03/25 00:00:57;;;;;;;13.03;7.30;;;;;;;-143.84;89.91;43845.84;5112653;28;20434;-76
2023/03/25 00:03:25;;;;;;;15.87;7.77;;;;;;;-143.84;89.86;43836.34;5113963;28;20438;-76
2023/03/25 00:05:52;;;;;;;19.17;9.60;;;;;;;-143.84;89.95;43803.97;5113408;28;20944;-76
2023/03/25 00:08:19;;;;;;;16.47;8.77;;;;;;;-143.84;89.91;43851.56;5113322;28;21067;-77
2023/03/25 00:10:52;;;;;;;31.27;9.30;;;;;;;-143.84;89.78;43834.44;5112903;28;20478;-76
2023/03/25 00:13:20;;;;;;;25.53;10.10;;;;;;;-143.84;90.01;43828.72;5112925;28;20465;-76
2023/03/25 00:15:47;;;;;;;16.50;9.20;;;;;;;-143.84;90.13;43815.41;5112739;28;20446;-76
2023/03/25 00:18:16;;;;;;;17.80;9.27;;;;;;;-143.84;90.09;43834.44;5113260;28;20447;-76
2023/03/25 00:20:44;;;;;;;29.97;10.70;;;;;;;-143.84;90.27;43823.00;5113137;28;20445;-76
2023/03/25 00:23:12;;;;;;;33.27;11.57;;;;;;;-143.84;90.53;43872.50;5112496;28;20525;-76
2023/03/25 00:25:39;;;;;;;15.27;10.40;;;;;;;-143.84;90.71;43828.72;5113056;28;20441;-76
2023/03/25 00:28:08;;;;;;;26.17;10.50;;;;;;;-143.84;90.92;43872.50;5113196;28;20838;-77
2023/03/25 00:30:35;;;;;;;16.40;10.20;;;;;;;-143.84;91.23;43893.44;5112626;28;20446;-76
2023/03/25 00:33:02;;;;;;;14.20;10.60;;;;;;;-143.84;91.18;43864.88;5111724;28;20528;-76
2023/03/25 00:35:31;;;;;;;19.97;10.77;;;;;;;-143.84;91.23;43861.06;5112274;28;20442;-76
2023/03/25 00:38:00;;;;;;;15.83;9.30;;;;;;;-143.84;91.44;43872.50;5112889;28;20435;-76
2023/03/25 00:40:29;;;;;;;27.73;11.30;;;;;;;-143.84;91.63;43901.06;5112362;28;20438;-76
2023/03/25 00:42:57;;;;;;;16.67;12.73;;;;;;;-143.84;91.61;43876.31;5112550;28;20431;-76
2023/03/25 00:45:25;;;;;;;27.07;10.53;;;;;;;-143.84;91.44;43891.53;5112330;28;20426;-76
2023/03/25 00:47:53;;;;;;;33.37;12.13;;;;;;;-143.84;91.36;43882.00;5112623;28;20935;-76
2023/03/25 00:50:20;;;;;;;22.80;11.87;;;;;;;-143.84;91.28;43895.34;5112592;28;20506;-76
2023/03/25 00:52:48;;;;;;;22.73;11.87;;;;;;;-143.84;91.30;43876.31;5112446;28;20442;-76
2023/03/25 00:55:16;;;;;;;27.73;12.60;;;;;;;-143.84;91.40;43895.34;5112489;28;20442;-76
2023/03/25 00:57:43;;;;;;;47.57;12.40;;;;;;;-143.84;91.27;43882.00;5112218;28;20435;-76
2023/03/25 01:00:14;;;;;;;34.67;12.50;;;;;;;-143.84;91.49;43878.22;5112517;28;20434;-76
2023/03/25 01:02:44;;;;;;;123.77;14.07;;;;;;;-143.84;91.21;43866.78;5111942;28;21083;-76
2023/03/25 01:05:12;;;;;;;32.03;11.40;;;;;;;-143.84;91.23;43885.81;5112208;28;20443;-76
2023/03/25 01:07:41;;;;;;;182.07;14.40;;;;;;;-143.84;91.26;43853.47;5112497;28;20462;-76
2023/03/25 01:10:10;;;;;;;154.63;14.17;;;;;;;-143.84;91.16;43878.22;5111812;28;20499;-76
2023/03/25 01:12:37;;;;;;;26.53;9.97;;;;;;;-143.84;90.82;43845.84;5111692;28;20451;-76
2023/03/25 01:15:05;;;;;;;124.83;11.90;;;;;;;-143.84;90.32;43830.63;5109843;28;20500;-76
2023/03/25 01:17:32;;;;;;;25.57;8.10;;;;;;;-143.84;90.16;43851.56;5109090;28;20899;-76
2023/03/25 01:20:00;;;;;;;90.17;10.77;;;;;;;-143.84;90.13;43847.75;5110153;28;20994;-76
2023/03/25 01:22:28;;;;;;;30.73;8.93;;;;;;;-143.84;90.41;43819.19;5111325;28;20503;-76
2023/03/25 01:24:55;;;;;;;16.90;10.03;;;;;;;-143.84;90.32;43845.84;5110810;28;20471;-76
2023/03/25 01:27:23;;;;;;;19.90;10.90;;;;;;;-143.84;90.44;43840.13;5111216;28;20503;-76
2023/03/25 01:29:50;;;;;;;12.20;8.97;;;;;;;-143.84;90.42;43845.84;5111058;28;20470;-76
2023/03/25 01:32:17;;;;;;;15.87;9.77;;;;;;;-143.84;90.96;43864.88;5111733;28;20511;-76
2023/03/25 01:34:45;;;;;;;18.47;9.93;;;;;;;-143.84;91.09;43866.78;5111874;28;20428;-76
2023/03/25 01:37:14;;;;;;;13.33;9.00;;;;;;;-143.84;91.25;43872.50;5111394;28;20446;-76
2023/03/25 01:39:41;;;;;;;12.40;9.87;;;;;;;-143.84;91.29;43868.69;5111100;28;20454;-76
2023/03/25 01:42:11;;;;;;;46.20;11.27;;;;;;;-143.84;91.49;43880.13;5111273;28;20446;-76
2023/03/25 01:45:15;;;;;;;10.60;9.03;;;;;;;-143.84;91.79;43901.06;5111006;28;20525;-76
2023/03/25 01:47:43;;;;;;;12.03;9.90;;;;;;;-143.84;91.74;43872.50;5109993;28;20472;-76
2023/03/25 01:50:13;;;;;;;15.23;10.77;;;;;;;-143.84;91.72;43882.00;5110502;28;20471;-76
2023/03/25 01:52:45;;;;;;;46.40;11.33;;;;;;;-143.84;92.33;43885.81;5111161;28;20461;-76
2023/03/25 01:55:13;;;;;;;20.20;11.27;;;;;;;-143.84;92.53;43901.06;5110827;28;20539;-76
2023/03/25 01:57:45;;;;;;;38.17;10.30;;;;;;;-143.84;92.99;43906.75;5111324;28;20435;-76
2023/03/25 02:00:14;;;;;;;57.33;10.80;;;;;;;-143.84;93.49;43946.75;5111283;28;20441;-76
2023/03/25 02:02:44;;;;;;;10.53;8.83;;;;;;;-143.84;93.76;43948.63;5110158;28;20449;-76
2023/03/25 02:05:19;;;;;;;10.27;8.83;;;;;;;-143.84;93.82;43952.44;5111249;28;20442;-76
2023/03/25 02:07:49;;;;;;;7.20;6.50;;;;;;;-143.84;94.19;43965.78;5111333;28;20515;-76
2023/03/25 02:10:18;;;;;;;8.93;8.00;;;;;;;-143.84;94.20;43975.28;5110882;28;20566;-75
2023/03/25 02:12:45;;;;;;;13.97;8.97;;;;;;;-143.84;94.57;43982.91;5111497;28;20434;-76
2023/03/25 02:15:15;;;;;;;9.30;8.30;;;;;;;-143.84;95.00;43996.22;5111540;28;20466;-76
2023/03/25 02:17:56;;;;;;;8.90;6.83;;;;;;;-143.84;95.12;43996.22;5111484;28;20556;-76
2023/03/25 02:21:12;;;;;;;13.30;9.37;;;;;;;-143.84;95.09;43992.41;5110779;28;20508;-77
2023/03/25 02:24:03;;;;;;;7.40;6.70;;;;;;;-143.84;95.02;43992.41;5113126;28;20447;-76
2023/03/25 02:26:59;;;;;;;20.60;8.00;;;;;;;-143.84;95.35;44011.47;5071196;28;20782;-76
2023/03/25 02:29:37;;;;;;;7.77;6.10;;;;;;;-143.84;95.36;44017.16;5113613;28;20571;-76
2023/03/25 02:32:16;;;;;;;11.20;6.60;;;;;;;-143.84;95.50;44024.78;5114045;28;20990;-76
2023/03/25 02:35:02;;;;;;;6.67;6.07;;;;;;;-143.84;95.95;44040.00;5114864;28;20515;-76
2023/03/25 02:38:05;;;;;;;8.30;7.50;;;;;;;-143.84;96.06;44040.00;5114973;28;20442;-76
2023/03/25 02:40:40;;;;;;;8.40;7.60;;;;;;;-143.84;96.41;44043.81;5083849;28;20477;-76
2023/03/25 02:43:13;;;;;;;9.77;8.10;;;;;;;-143.84;96.40;44047.63;5114930;28;20445;-76
2023/03/25 02:45:44;;;;;;;9.40;8.50;;;;;;;-143.84;96.33;44053.34;5114923;28;20881;-76
2023/03/25 02:48:19;;;;;;;7.27;6.47;;;;;;;-143.84;96.24;44043.81;5114795;28;20431;-76
2023/03/25 02:50:51;;;;;;;11.30;6.43;;;;;;;-143.84;95.79;44041.91;5114918;28;20481;-76
2023/03/25 02:53:23;;;;;;;6.60;6.00;;;;;;;-143.84;95.87;44032.41;5114576;28;20438;-76
2023/03/25 02:55:56;;;;;;;7.23;6.00;;;;;;;-143.84;95.64;44032.41;5114727;28;20435;-76
2023/03/25 02:58:24;;;;;;;9.00;6.87;;;;;;;-143.84;95.78;44041.91;5115376;28;20426;-76
2023/03/25 03:00:57;;;;;;;9.00;5.90;;;;;;;-143.84;95.82;44032.41;5114662;28;20438;-76
2023/03/25 03:03:25;;;;;;;13.03;9.20;;;;;;;-143.84;96.01;44038.09;5114626;28;20441;-76
2023/03/25 03:05:56;;;;;;;7.23;6.17;;;;;;;-143.84;96.20;44043.81;5114548;28;20503;-76
2023/03/25 03:08:36;;;;;;;12.30;7.07;;;;;;;-143.84;96.02;44043.81;5114267;28;20520;-77
2023/03/25 03:11:13;;;;;;;7.73;6.93;;;;;;;-143.84;95.86;44051.44;5114300;28;20497;-76
2023/03/25 03:14:00;;;;;;;13.37;8.03;;;;;;;-143.84;95.80;44049.53;5113977;28;20497;-76
2023/03/25 03:16:38;;;;;;;9.07;7.70;;;;;;;-143.84;96.36;44059.03;5113068;28;20534;-76
2023/03/25 03:19:22;;;;;;;7.63;6.50;;;;;;;-143.84;95.99;44055.25;5113523;28;20440;-75
2023/03/25 03:21:59;;;;;;;9.23;8.03;;;;;;;-143.84;96.17;44060.94;5113261;28;20824;-77
2023/03/25 03:24:31;;;;;;;9.90;8.90;;;;;;;-143.84;96.15;44045.72;5114127;28;20450;-76
2023/03/25 03:27:10;;;;;;;10.43;8.63;;;;;;;-143.84;96.06;44062.84;5113748;28;20443;-76
2023/03/25 03:29:44;;;;;;;11.10;9.07;;;;;;;-143.84;96.03;44047.63;5114351;28;20483;-76
2023/03/25 03:32:19;;;;;;;8.13;7.30;;;;;;;-143.84;95.55;44030.50;5114223;28;20483;-76
2023/03/25 03:34:51;;;;;;;8.63;7.77;;;;;;;-143.84;95.41;44028.59;5114201;28;20520;-76
2023/03/25 03:37:25;;;;;;;14.37;5.80;;;;;;;-143.84;95.42;44020.97;5113802;28;20430;-76
2023/03/25 03:39:55;;;;;;;7.30;6.60;;;;;;;-143.84;95.78;44036.22;5114293;28;20510;-76
2023/03/25 03:42:29;;;;;;;8.90;7.93;;;;;;;-143.84;95.82;44036.22;5113940;28;20503;-76
2023/03/25 03:45:01;;;;;;;8.47;7.67;;;;;;;-143.84;95.67;44036.22;5113817;28;20487;-76
2023/03/25 03:47:32;;;;;;;11.83;7.40;;;;;;;-143.84;95.96;44043.81;5113628;28;20442;-76
2023/03/25 03:50:08;;;;;;;10.87;6.97;;;;;;;-143.84;95.91;44049.53;5105706;28;20482;-76
2023/03/25 03:52:40;;;;;;;10.50;9.07;;;;;;;-143.84;95.99;44053.34;5093153;28;20446;-76
2023/03/25 03:55:12;;;;;;;17.40;10.00;;;;;;;-143.84;96.42;44070.47;5093213;28;20983;-76
2023/03/25 03:57:46;;;;;;;14.63;8.77;;;;;;;-143.84;96.67;44091.41;5093265;28;20473;-76
2023/03/25 04:00:20;;;;;;;12.20;10.27;;;;;;;-143.84;96.90;44089.50;5092983;28;20520;-76
2023/03/25 04:02:51;;;;;;;16.10;8.83;;;;;;;-143.84;97.58;44099.03;5093208;28;21142;-76
2023/03/25 04:05:22;;;;;;;15.63;12.27;;;;;;;-143.84;97.55;44106.63;5093358;28;20432;-76
2023/03/25 04:07:55;;;;;;;10.60;9.50;;;;;;;-143.84;97.83;44118.06;5092887;28;20439;-76
2023/03/25 04:10:33;;;;;;;14.10;11.10;;;;;;;-143.84;98.01;44119.97;5092376;28;20547;-76
2023/03/25 04:13:05;;;;;;;11.80;10.00;;;;;;;-143.84;97.85;44118.06;5092692;28;20443;-76
2023/03/25 04:15:32;;;;;;;17.83;9.87;;;;;;;-143.84;97.94;44125.69;5092529;28;20470;-76
2023/03/25 04:18:00;;;;;;;12.83;7.57;;;;;;;-143.84;98.30;44123.78;5092571;28;20436;-76
2023/03/25 04:20:32;;;;;;;23.77;13.37;;;;;;;-143.84;98.33;44148.53;5092657;28;20818;-76
2023/03/25 04:23:00;;;;;;;24.80;15.43;;;;;;;-143.84;98.83;44152.31;5092481;28;20772;-76
2023/03/25 04:25:28;;;;;;;19.03;13.00;;;;;;;-143.84;99.12;44169.47;5092540;28;20450;-76
2023/03/25 04:27:57;;;;;;;20.87;13.50;;;;;;;-143.84;99.16;44178.97;5092018;28;20896;-76
2023/03/25 04:30:27;;;;;;;19.57;14.43;;;;;;;-143.84;98.79;44167.56;5091328;28;20553;-76
2023/03/25 04:32:54;;;;;;;24.63;14.43;;;;;;;-143.84;98.93;44182.78;5091403;28;20997;-76
2023/03/25 04:35:22;;;;;;;19.57;11.67;;;;;;;-143.84;99.42;44190.41;5091045;28;20513;-76
2023/03/25 04:37:52;;;;;;;54.20;15.87;;;;;;;-143.84;99.58;44199.91;5090650;28;20434;-76
2023/03/25 04:40:19;;;;;;;15.20;10.67;;;;;;;-143.84;99.60;44196.13;5092038;28;20920;-76
2023/03/25 04:42:46;;;;;;;19.07;14.10;;;;;;;-143.84;99.54;44203.72;5091707;28;20439;-76
2023/03/25 04:45:15;;;;;;;23.80;12.87;;;;;;;-143.84;99.38;44218.94;5103767;28;20462;-76
2023/03/25 04:47:45;;;;;;;21.83;14.30;;;;;;;-143.84;99.71;44226.56;5112143;28;20474;-76
2023/03/25 04:50:19;;;;;;;13.17;9.30;;;;;;;-143.84;99.92;44234.19;5112188;28;20560;-77
2023/03/25 04:52:47;;;;;;;25.97;13.17;;;;;;;-143.84;100.00;44243.69;5112396;28;20850;-76
2023/03/25 04:55:16;;;;;;;71.77;16.30;;;;;;;-143.84;100.00;44258.94;5112652;28;20856;-76
2023/03/25 04:57:45;;;;;;;92.97;17.70;;;;;;;-143.84;100.00;44281.78;5112203;28;20434;-76
2023/03/25 05:00:14;;;;;;;16.60;11.90;;;;;;;-143.84;100.00;44293.19;5112385;28;20473;-76
2023/03/25 05:02:46;;;;;;;18.70;13.70;;;;;;;-143.84;100.00;44281.78;5112363;28;21085;-76
2023/03/25 05:05:17;;;;;;;18.70;14.10;;;;;;;-143.84;100.00;44293.19;5111320;28;20817;-76
2023/03/25 05:07:45;;;;;;;17.90;11.10;;;;;;;-143.84;99.79;44274.16;5111544;28;20440;-76
2023/03/25 05:10:12;;;;;;;29.30;13.30;;;;;;;-143.84;99.75;44247.50;5111384;28;20496;-76
2023/03/25 05:12:40;;;;;;;22.10;14.10;;;;;;;-143.84;99.55;44238.00;5111803;28;20435;-76
2023/03/25 05:15:08;;;;;;;50.80;17.50;;;;;;;-143.84;99.65;44253.22;5111997;28;20429;-76
2023/03/25 05:17:35;;;;;;;29.23;14.80;;;;;;;-143.84;99.98;44276.06;5111741;28;20449;-77
2023/03/25 05:20:07;;;;;;;21.73;14.97;;;;;;;-143.84;99.75;44266.53;5111401;28;20429;-74
2023/03/25 05:22:34;;;;;;;58.07;15.43;;;;;;;-143.84;99.73;44268.44;5110866;28;20445;-74
2023/03/25 05:25:03;;;;;;;37.73;16.70;;;;;;;-143.84;100.00;44285.59;5111246;28;20506;-77
2023/03/25 05:27:30;;;;;;;21.70;14.57;;;;;;;-143.84;100.00;44308.44;5111848;28;20441;-77
2023/03/25 05:29:58;;;;;;;51.70;15.87;;;;;;;-143.84;100.00;44308.44;5111634;28;20505;-76
2023/03/25 05:32:28;;;;;;;18.87;10.87;;;;;;;-143.84;99.80;44283.69;5112087;28;20443;-75
2023/03/25 05:34:56;;;;;;;17.80;13.97;;;;;;;-143.84;99.94;44287.50;5109194;28;20833;-75
2023/03/25 05:37:26;;;;;;;16.47;11.27;;;;;;;-143.84;100.00;44304.63;5109075;28;20441;-75
2023/03/25 05:39:53;;;;;;;17.40;12.87;;;;;;;-143.84;99.98;44298.91;5109792;28;20449;-76
2023/03/25 05:42:21;;;;;;;80.40;15.30;;;;;;;-143.84;99.89;44289.41;5110936;28;20452;-75
2023/03/25 05:44:50;;;;;;;21.70;13.77;;;;;;;-143.84;100.00;44317.94;5110970;28;20455;-75
2023/03/25 05:47:20;;;;;;;42.23;17.50;;;;;;;-143.84;100.00;44350.31;5110526;28;20677;-75
2023/03/25 05:49:48;;;;;;;20.27;14.80;;;;;;;-143.84;100.00;44354.13;5110823;28;20517;-76
2023/03/25 05:52:15;;;;;;;13.13;11.17;;;;;;;-143.84;100.00;44329.38;5111183;28;20440;-76
2023/03/25 05:54:44;;;;;;;41.47;14.27;;;;;;;-143.84;100.00;44323.66;5110440;28;20445;-75
2023/03/25 05:57:12;;;;;;;20.30;13.70;;;;;;;-143.84;99.79;44321.75;5109750;28;20507;-75
2023/03/25 05:59:40;;;;;;;15.40;11.50;;;;;;;-143.84;99.75;44295.09;5110352;28;20957;-75
2023/03/25 06:02:08;;;;;;;21.30;12.87;;;;;;;-143.84;99.49;44272.25;5110723;28;20525;-75
2023/03/25 06:04:40;;;;;;;20.33;12.00;;;;;;;-143.84;99.54;44262.75;5110416;28;20441;-75
2023/03/25 06:07:12;;;;;;;14.27;10.40;;;;;;;-143.84;98.97;44230.38;5110547;28;20453;-76
2023/03/25 06:09:45;;;;;;;18.80;12.33;;;;;;;-143.84;99.15;44241.81;5110542;28;21034;-75
2023/03/25 06:12:15;;;;;;;12.10;9.67;;;;;;;-143.84;99.21;44230.38;5106387;28;20490;-75
2023/03/25 06:14:44;;;;;;;25.67;13.30;;;;;;;-143.84;98.75;44226.56;5110043;28;20461;-74
2023/03/25 06:17:12;;;;;;;17.97;14.00;;;;;;;-143.84;99.12;44245.59;5109718;28;20481;-74
2023/03/25 06:19:39;;;;;;;20.27;13.70;;;;;;;-143.84;99.32;44262.75;5109751;28;20502;-74
2023/03/25 06:22:08;;;;;;;25.47;16.83;;;;;;;-143.84;99.44;44260.84;5109521;28;20957;-75
2023/03/25 06:24:36;;;;;;;21.63;13.07;;;;;;;-143.84;99.75;44283.69;5109163;28;20456;-75
2023/03/25 06:27:03;;;;;;;27.90;15.00;;;;;;;-143.84;99.80;44281.78;5109189;28;20461;-74
2023/03/25 06:29:32;;;;;;;18.47;13.80;;;;;;;-143.84;99.56;44281.78;5110002;28;20503;-74
2023/03/25 06:31:59;;;;;;;16.63;11.37;;;;;;;-143.84;99.39;44258.94;5109897;28;20490;-75
2023/03/25 06:34:26;;;;;;;17.93;11.87;;;;;;;-143.84;98.76;44234.19;5109292;28;20482;-75
2023/03/25 06:36:53;;;;;;;27.47;13.50;;;;;;;-143.84;99.36;44260.84;5108892;28;20944;-74
2023/03/25 06:39:20;;;;;;;29.37;11.43;;;;;;;-143.84;99.20;44253.22;5108937;28;20449;-74
2023/03/25 06:41:48;;;;;;;21.07;14.60;;;;;;;-143.84;99.04;44255.13;5107720;28;20440;-75
2023/03/25 06:44:15;;;;;;;101.77;19.70;;;;;;;-143.84;99.43;44285.59;5108656;28;21175;-74
2023/03/25 06:46:44;;;;;;;115.60;17.27;;;;;;;-143.84;99.31;44277.97;5108755;28;20433;-74
2023/03/25 06:49:11;;;;;;;154.13;18.67;;;;;;;-143.84;99.46;44276.06;5109197;28;21057;-74
2023/03/25 06:51:38;;;;;;;283.40;21.00;;;;;;;-143.84;99.37;44262.75;5109861;28;20477;-77
2023/03/25 06:54:06;;;;;;;19.77;15.03;;;;;;;-143.84;99.40;44283.69;5108926;28;21020;-75
2023/03/25 06:56:33;;;;;;;113.30;17.43;;;;;;;-143.84;99.66;44297.00;5108585;28;20489;-75
2023/03/25 06:59:00;;;;;;;408.03;28.33;;;;;;;-143.84;99.33;44277.97;5109671;28;20430;-74
2023/03/25 07:01:27;;;;;;;25.57;14.70;;;;;;;-143.84;99.80;44319.84;5109325;28;20495;-75
2023/03/25 07:03:56;;;;;;;39.83;17.00;;;;;;;-143.84;100.00;44342.69;5109583;28;20444;-74
2023/03/25 07:06:24;;;;;;;48.53;17.93;;;;;;;-143.84;100.00;44369.34;5091808;28;20477;-76
2023/03/25 07:08:52;;;;;;;77.33;15.03;;;;;;;-143.84;99.82;44317.94;5089755;28;20537;-75
2023/03/25 07:11:25;;;;;;;202.93;21.60;;;;;;;-143.84;99.57;44297.00;5108795;28;20496;-75
2023/03/25 07:13:52;;;;;;;114.40;19.60;;;;;;;-143.84;100.00;44327.47;5112111;28;20448;-75
2023/03/25 07:16:20;;;;;;;335.97;25.83;;;;;;;-143.84;99.95;44354.13;5108807;28;20513;-76
2023/03/25 07:18:49;;;;;;;325.50;25.10;;;;;;;-143.84;99.65;44321.75;5106754;28;20541;-73
2023/03/25 07:21:17;;;;;;;40.20;15.10;;;;;;;-143.84;99.81;44308.44;5110956;28;20977;-73
2023/03/25 07:23:45;;;;;;;32.50;13.80;;;;;;;-143.84;99.71;44304.63;5108044;28;20448;-73
2023/03/25 07:26:13;;;;;;;58.87;16.47;;;;;;;-143.84;99.70;44316.03;5103927;28;21331;-74
2023/03/25 07:28:41;;;;;;;47.43;26.80;;;;;;;-143.84;99.77;44317.94;5099062;28;20448;-75
2023/03/25 07:31:09;;;;;;;25.70;17.10;;;;;;;-143.84;99.73;44329.38;5101367;28;20558;-74
2023/03/25 07:33:36;;;;;;;191.60;24.60;;;;;;;-143.84;99.05;44264.66;5098116;28;20446;-73
2023/03/25 07:36:07;;;;;;;496.23;34.63;;;;;;;-143.84;98.72;44236.09;5100750;28;20954;-74
2023/03/25 07:38:36;;;;;;;491.33;35.73;;;;;;;-143.84;98.63;44226.56;5095777;28;20447;-74
2023/03/25 07:41:06;;;;;;;529.70;38.10;;;;;;;-143.84;98.52;44222.75;5090577;28;21103;-74
2023/03/25 07:43:33;;;;;;;819.67;53.80;;;;;;;-143.84;98.71;44232.28;5091395;28;20446;-72
2023/03/25 07:46:00;;;;;;;585.97;36.47;;;;;;;-143.84;98.73;44245.59;5095012;28;20468;-73
2023/03/25 07:48:28;;;;;;;434.83;32.03;;;;;;;-143.84;98.54;44222.75;5096951;28;20494;-73
2023/03/25 07:50:55;;;;;;;143.87;19.93;;;;;;;-143.84;98.86;44245.59;5097306;28;20526;-73
2023/03/25 07:53:23;;;;;;;1018.93;60.80;;;;;;;-143.84;99.16;44272.25;5102233;28;20519;-73
2023/03/25 07:55:51;;;;;;;804.03;50.63;;;;;;;-143.84;99.21;44279.88;5100484;28;20875;-73
2023/03/25 07:58:18;;;;;;;628.77;38.30;;;;;;;-143.84;99.27;44270.34;5099186;28;20473;-74
2023/03/25 08:00:46;;;;;;;510.33;30.43;;;;;;;-143.84;98.96;44258.94;5098312;28;20443;-74
2023/03/25 08:03:14;;;;;;;540.90;44.70;;;;;;;-143.84;99.33;44277.97;5104793;28;20516;-74
2023/03/25 08:05:46;;;;;;;520.80;31.27;;;;;;;-143.84;99.44;44258.94;5099042;28;20452;-72
2023/03/25 08:08:14;;;;;;;796.53;44.17;;;;;;;-143.84;99.36;44295.09;5103736;28;20449;-72
2023/03/25 08:10:43;;;;;;;864.90;49.40;;;;;;;-143.84;99.58;44300.81;5101351;28;21116;-72
2023/03/25 08:13:12;;;;;;;781.70;50.60;;;;;;;-143.84;99.60;44312.25;5100570;28;20455;-73
2023/03/25 08:15:39;;;;;;;222.90;39.10;;;;;;;-143.84;99.97;44354.13;5099394;28;20507;-73
2023/03/25 08:18:06;;;;;;;703.80;46.80;;;;;;;-143.84;99.96;44357.94;5105746;28;21000;-74
2023/03/25 08:20:33;;;;;;;101.67;18.80;;;;;;;-143.84;99.25;44283.69;5094727;28;20870;-73
2023/03/25 08:23:01;;;;;;;288.73;22.57;;;;;;;-143.84;98.80;44241.81;5104615;28;20549;-72
2023/03/25 08:25:29;;;;;;;280.77;27.73;;;;;;;-143.84;98.72;44243.69;5104078;28;20446;-70
2023/03/25 08:27:56;;;;;;;247.33;32.50;;;;;;;-143.84;98.73;44239.91;5107669;28;20510;-73
2023/03/25 08:30:24;;;;;;;193.67;38.67;;;;;;;-143.84;98.65;44236.09;5107454;28;20544;-72
2023/03/25 08:32:54;;;;;;;107.63;17.10;;;;;;;-143.84;98.83;44243.69;5109003;28;21296;-74
2023/03/25 08:35:22;;;;;;;82.57;16.30;;;;;;;-143.84;97.89;44205.63;5104170;28;20445;-75
2023/03/25 08:37:49;;;;;;;108.83;22.33;;;;;;;-143.84;98.12;44188.50;5096352;28;20449;-74
2023/03/25 08:40:17;;;;;;;746.87;46.17;;;;;;;-143.84;98.01;44196.13;5092885;28;20442;-74
2023/03/25 08:42:45;;;;;;;315.03;25.77;;;;;;;-143.84;98.26;44218.94;5097710;28;20450;-75
2023/03/25 08:45:14;;;;;;;613.03;39.30;;;;;;;-143.84;98.06;44196.13;5096615;28;20453;-75
2023/03/25 08:47:44;;;;;;;755.60;51.83;;;;;;;-143.84;98.16;44199.91;5099127;28;20446;-75
2023/03/25 08:50:11;;;;;;;501.57;35.07;;;;;;;-143.84;98.36;44201.81;5096012;28;20454;-75
2023/03/25 08:52:38;;;;;;;87.67;28.80;;;;;;;-143.84;98.48;44217.06;5093853;28;20490;-74
2023/03/25 08:55:07;;;;;;;555.30;37.17;;;;;;;-143.84;98.64;44234.19;5097342;28;20441;-74
2023/03/25 08:57:35;;;;;;;349.50;27.67;;;;;;;-143.84;98.33;44228.47;5092733;28;21029;-75
2023/03/25 09:00:03;;;;;;;551.33;43.00;;;;;;;-143.84;98.27;44217.06;5094768;28;20479;-74
2023/03/25 09:02:30;;;;;;;90.17;25.00;;;;;;;-143.84;98.30;44207.53;5093016;28;20431;-73
2023/03/25 09:04:58;;;;;;;171.80;22.67;;;;;;;-143.84;98.35;44215.16;5095140;28;20495;-73
2023/03/25 09:07:25;;;;;;;154.13;22.37;;;;;;;-143.84;98.40;44218.94;5096706;28;21707;-74
2023/03/25 09:09:53;;;;;;;225.27;34.50;;;;;;;-143.84;98.23;44215.16;5094921;28;20497;-74
2023/03/25 09:12:20;;;;;;;557.20;41.93;;;;;;;-143.84;97.87;44188.50;5097774;28;20568;-73
2023/03/25 09:14:47;;;;;;;223.53;26.40;;;;;;;-143.84;98.23;44207.53;5095945;28;20454;-74
2023/03/25 09:17:14;;;;;;;124.40;24.50;;;;;;;-143.84;98.35;44215.16;5094813;28;20503;-73
2023/03/25 09:19:41;;;;;;;87.43;23.20;;;;;;;-143.84;97.98;44196.13;5097851;28;20559;-73
2023/03/25 09:22:10;;;;;;;315.47;38.37;;;;;;;-143.84;97.89;44194.22;5097912;28;20477;-73
2023/03/25 09:24:37;;;;;;;165.23;18.67;;;;;;;-143.84;97.34;44165.66;5097937;28;20544;-75
2023/03/25 09:27:04;;;;;;;28.03;16.93;;;;;;;-143.84;97.44;44165.66;5097466;28;20944;-75
2023/03/25 09:29:32;;;;;;;69.20;18.30;;;;;;;-143.84;97.12;44159.94;5098213;28;20916;-75
2023/03/25 09:31:59;;;;;;;57.50;19.03;;;;;;;-143.84;97.31;44169.47;5096440;28;21109;-75
2023/03/25 09:34:27;;;;;;;69.40;21.90;;;;;;;-143.84;96.82;44150.41;5100442;28;20478;-75
2023/03/25 09:36:55;;;;;;;79.60;23.53;;;;;;;-143.84;96.07;44114.25;5101056;28;20440;-75
2023/03/25 09:39:24;;;;;;;279.87;30.13;;;;;;;-143.84;95.84;44112.34;5100962;28;20933;-75
2023/03/25 09:42:03;;;;;;;88.57;31.40;;;;;;;-143.84;95.59;44112.34;5089608;28;20508;-74
2023/03/25 09:44:36;;;;;;;339.70;38.00;;;;;;;-143.84;95.63;44110.44;5088706;28;20451;-74
2023/03/25 09:47:05;;;;;;;208.53;27.97;;;;;;;-143.84;95.53;44100.94;5092591;28;20428;-75
2023/03/25 09:49:39;;;;;;;67.50;21.20;;;;;;;-143.84;95.63;44091.41;5097985;28;20950;-75
2023/03/25 09:52:13;;;;;;;97.30;38.90;;;;;;;-143.84;95.63;44097.13;5095018;28;20485;-75
2023/03/25 09:54:47;;;;;;;202.00;58.17;;;;;;;-143.84;95.60;44099.03;5094922;28;20450;-75
2023/03/25 09:57:20;;;;;;;78.03;29.60;;;;;;;-143.84;95.67;44104.72;5096824;28;20450;-73
2023/03/25 09:59:50;;;;;;;411.97;34.10;;;;;;;-143.84;95.97;44106.63;5099818;28;20454;-75
2023/03/25 10:02:30;;;;;;;85.90;21.67;;;;;;;-143.84;96.05;44119.97;5099880;28;21428;-73
2023/03/25 10:05:14;;;;;;;100.83;22.00;;;;;;;-143.84;95.57;44095.22;5102578;28;20508;-73
2023/03/25 10:07:52;;;;;;;136.73;25.80;;;;;;;-143.84;95.53;44089.50;5093374;28;20853;-73
2023/03/25 10:10:28;;;;;;;51.50;30.47;;;;;;;-143.84;95.65;44085.69;5102258;28;20486;-72
2023/03/25 10:13:05;;;;;;;59.03;21.80;;;;;;;-143.84;95.53;44093.31;5100178;28;20531;-73
2023/03/25 10:15:37;;;;;;;90.40;25.97;;;;;;;-143.84;95.74;44093.31;5102387;28;20450;-73
2023/03/25 10:18:19;;;;;;;93.10;27.73;;;;;;;-143.84;96.04;44106.63;5094379;28;20511;-72
2023/03/25 10:20:53;;;;;;;212.23;37.43;;;;;;;-143.84;95.84;44108.53;5101895;28;20443;-73
2023/03/25 10:23:27;;;;;;;238.37;29.20;;;;;;;-143.84;95.76;44089.50;5099340;28;20457;-73
2023/03/25 10:26:01;;;;;;;103.33;27.30;;;;;;;-143.84;95.23;44097.13;5105016;28;20458;-73
2023/03/25 10:28:32;;;;;;;243.87;27.20;;;;;;;-143.84;95.84;44110.44;5106685;28;20472;-73
2023/03/25 10:31:00;;;;;;;146.93;33.93;;;;;;;-143.84;95.63;44095.22;5098853;28;20451;-73
2023/03/25 10:33:35;;;;;;;44.63;28.27;;;;;;;-143.84;95.47;44083.78;5091833;28;20511;-73
2023/03/25 10:36:05;;;;;;;62.83;35.67;;;;;;;-143.84;94.37;44064.75;5100758;28;20454;-72
2023/03/25 10:38:34;;;;;;;40.73;25.10;;;;;;;-143.84;94.27;44055.25;5093873;28;20454;-72
2023/03/25 10:41:16;;;;;;;60.47;24.00;;;;;;;-143.84;93.97;44041.91;5095471;28;20454;-73
2023/03/25 10:43:44;;;;;;;65.67;20.87;;;;;;;-143.84;93.57;44022.88;5091941;28;20829;-73
2023/03/25 10:46:18;;;;;;;91.87;30.93;;;;;;;-143.84;93.82;44047.63;5104402;28;20455;-73
2023/03/25 10:48:46;;;;;;;47.53;29.03;;;;;;;-143.84;94.02;44028.59;5101095;28;20959;-73
2023/03/25 10:51:16;;;;;;;60.07;26.17;;;;;;;-143.84;93.86;44030.50;5101423;28;20452;-73
2023/03/25 10:53:48;;;;;;;51.97;23.73;;;;;;;-143.84;93.72;44032.41;5100306;28;20852;-72
2023/03/25 10:56:21;;;;;;;69.70;24.23;;;;;;;-143.84;93.06;44009.56;5096003;28;20539;-72
2023/03/25 10:58:52;;;;;;;57.30;22.67;;;;;;;-143.84;92.99;43996.22;5103152;28;20450;-73
2023/03/25 11:01:22;;;;;;;221.83;29.47;;;;;;;-143.84;93.11;43986.72;5095397;28;20511;-73
2023/03/25 11:03:51;;;;;;;156.80;25.27;;;;;;;-143.84;93.05;44017.16;5097154;28;20493;-72
2023/03/25 11:06:28;;;;;;;92.73;26.97;;;;;;;-143.84;93.47;44017.16;5100883;28;20443;-71
2023/03/25 11:09:18;;;;;;;150.67;41.90;;;;;;;-143.84;93.58;44022.88;5101031;28;20463;-71
2023/03/25 11:11:47;;;;;;;203.23;29.23;;;;;;;-143.84;93.37;44009.56;5080161;28;20483;-71
2023/03/25 11:14:16;;;;;;;193.80;32.00;;;;;;;-143.84;92.87;43994.31;5080543;28;20534;-71
2023/03/25 11:16:47;;;;;;;407.33;36.57;;;;;;;-143.84;92.74;43990.53;5079833;28;20466;-71